Terminal Aerodrome Forecast
Issued by NWS Wilmington, OH

Current Version | Previous Version | Graphics & Text | Print | Product List | Glossary On
Versions: 1 2 3 4 5 6 7 8 9 10 11 12 13 14 15 16 17 18 19 20
466
FTUS41 KILN 291132
TAFILN
TAF
KILN 291132Z 2912/3012 19004KT P6SM VCSH SCT060 OVC120
     FM291500 21008KT P6SM FEW040 BKN250
     FM292300 21006KT P6SM VCTS BKN040CB
     FM300200 22004KT P6SM BKN040
     FM300900 30003KT P6SM FEW040=

USA.gov is the U.S. government's official web portal to all federal, state and local government web resources and services.